Aeroporto :
LOGIN :

Iscrizione | Disclaimer

   EN    FR    IT 

 










Sommario :    VFR   VFR Marginale   IFR   IFR Intensivo   IFR Molto Intensivo
Visibilità : 
Base nubi : 
>= 8 km
>= 3000ft
5 / 8 km
1000 / 3000 ft
1500m / 5 km
500 / 1000 ft
800 / 1500m
200 / 500 ft
< 800m
< 200 ft
Simboli :   Temporali  Nebbia  Neve Forte  Precipitazioni Forti  Vento > 20 kt
SIGMETs :   Varie  Temporali  Ghiacco  Turbolenza  Onda orograficha  Ceneri Vulcaniche






- Altitudine del aeroporto : 39 ft


ETNH - Hohn AB

ULTIMO METAR :
  • 231720Z 27013KT 9999 FEW015 BKN060 BKN090 04/03 Q1003 BLU

METARs OBSOLETI :
  • 231648Z 29011KT 9999 -RA FEW011 BKN037 04/03 Q1003 BLU
  • 231620Z 29016KT 9999 -RA BKN011 04/03 Q1002 GRN
  • 231520Z 29014KT 9999 -RA BKN011 BKN020 04/03 Q1001 RERA GRN

TAF TAF ETNH
Valido dal 23 a 18 ore il 24 a 06 ore UTC


231720Z 2318/2406 27015G25KT 9999 NSW SCT020 BKN030
TEMPO 2318/2320 28015G30KT 4000 SHRA BKN010 BKN020CB
TEMPO 2320/2406 28015G28KT 8000 NSW BKN015 BY ETGL



MetMap, La meteo Aeronautica in un colpo d'occhio ! - Copyright ORBIFLY Dicembre 2007 - Disclaimer

ORBIFLY MET'MAP TEAM :

Programmazione e sviluppo : Alexandra Zaïnal
Concezione : Baudouin d'Aumeries
Aiuto per la programmazione : Marc-Olivier Méhu
Supporto tecnico e logistico : Manuel Goepfert
Aiuto per la traduzione : Arnaldo La Scala

Contatto : metmap@orbifly.com




FONTI E CREDITI :

   NOAA